Airfield :
LOGIN :

Register | Disclaimer

   EN    FR    IT 

 










Legend :    VFR   Marginal VFR   IFR   Intensive IFR   Very Intensive IFR
Visi :
Ceiling :
>= 8 km
>= 3000ft
5 to 8 km
1000 to 3000 ft
1500m to 5 km
500 to 1000 ft
800 to 1500m
200 to 500 ft
< 800m
< 200 ft
Symbols :   Thunderstorms  Fog  Heavy snow  Heavy precipitations  Wind > 20 kt
SIGMETs :     Misc.  Thunderstorms  Icing  Turbulence  Mountain Waves  Volcanic Ashes







- Airport Elevation : 84 ft
- Download approach charts


LFBC - Cazaux

CURRENT METAR :
  • 212230Z AUTO 00000KT CAVOK 18/15 Q1017 NOSIG

EXPIRED METARs :
  • 212200Z AUTO 00000KT CAVOK 18/15 Q1017 NOSIG
  • 212130Z AUTO 33002KT CAVOK 19/15 Q1017 NOSIG
  • 212100Z AUTO 29002KT CAVOK 20/15 Q1017 NOSIG
  • 212030Z AUTO 25002KT CAVOK 20/15 Q1017 TEMPO BKN014
  • 212000Z AUTO 27003KT CAVOK 20/15 Q1017 TEMPO SHRA BKN030TCU

TAF TAF LFBC
Valid from the 21 at 21:00 until the 22 at 21:00 UTC


212000Z 2121/2221 26006KT 9999 SCT040 SCT060
PROB40
TEMPO 2200/2206 BKN015
PROB30
TEMPO 2203/2206 0800 BCFG
TEMPO 2214/2218 32012KT
No reported NOTAMs for that airfield.



MET'MAP, your aeronautical weather chart ! - Copyright ORBIFLY December 2007 - Disclaimer

ORBIFLY MET'MAP TEAM :

Programming & Development : Alexandra Zaïnal
Concept & Development : Baudouin d'Aumeries
Co-Development & Prog : Marc-Olivier Méhu
Technical & hardware support : Manuel Goepfert

Contact : metmap@orbifly.com




SOURCES & CREDITS :

   NOAA